weather.gov     
National Weather Service

Terminal Aerodrome Forecast
NWS Homepage
This page is being discontinued on March 12, 2014.
The same data is available at this site. Please update your bookmarks.
Thank you, and we apologize for the inconvenience.
Please send an email to SR-SRH.Webmaster@noaa.gov with any concerns.


Current Version
Previous Version:    01  02  03  04  05  06  07  08  09  10  11  12  13  14  15  16  17  18  19  20  21  22  23  24  25  26  27  
[Printable]
810
FTUS42 KTBW 222300
TAFLAL
TAF
KLAL 222326Z 2300/2324 20007KT P6SM SCT040 BKN250
     FM230600 VRB03KT 3SM BR FEW006 BKN035
     FM230900 VRB03KT 2SM BR FEW005 BKN012
     FM231200 VRB03KT 1SM BR SCT002 BKN005
     FM231500 16008KT 6SM BR SCT005 BKN015
     FM231800 16012KT P6SM SCT020 BKN035
      AMD NOT SKED 2303/2312=


U.S. Dept. of Commerce
NOAA National Weather Service
1325 East West Highway
Silver Spring, MD 20910
E-mail: w-nws.webmaster@noaa.gov
Page last modified: May 16, 2007
NATIONAL WEATHER SERVICE: for Safety, for Work, for Fun - FOR LIFE